sensor_id;sensor_type;location;lat;lon;timestamp;pressure;altitude;pressure_sealevel;temperature;humidity
30636;BME280;17400;52.392;9.750;2023-05-09T00:00:12;101387.38;;;14.08;67.86
30636;BME280;17400;52.392;9.750;2023-05-09T00:02:41;101382.50;;;13.97;68.43
30636;BME280;17400;52.392;9.750;2023-05-09T00:05:11;101383.81;;;14.01;68.53
30636;BME280;17400;52.392;9.750;2023-05-09T00:07:41;101376.25;;;14.03;68.05
30636;BME280;17400;52.392;9.750;2023-05-09T00:10:09;101385.88;;;13.99;68.79
30636;BME280;17400;52.392;9.750;2023-05-09T00:12:36;101379.75;;;13.90;68.99
30636;BME280;17400;52.392;9.750;2023-05-09T00:15:05;101379.16;;;13.95;68.76
30636;BME280;17400;52.392;9.750;2023-05-09T00:17:34;101378.13;;;13.96;68.61
30636;BME280;17400;52.392;9.750;2023-05-09T00:20:07;101380.81;;;13.82;69.22
30636;BME280;17400;52.392;9.750;2023-05-09T00:22:38;101371.75;;;13.75;69.97
30636;BME280;17400;52.392;9.750;2023-05-09T00:25:07;101364.34;;;13.62;70.39
30636;BME280;17400;52.392;9.750;2023-05-09T00:27:35;101375.06;;;13.64;70.72
30636;BME280;17400;52.392;9.750;2023-05-09T00:30:04;101375.22;;;13.62;70.36
30636;BME280;17400;52.392;9.750;2023-05-09T00:32:33;101366.63;;;13.52;70.96
30636;BME280;17400;52.392;9.750;2023-05-09T00:35:01;101360.13;;;13.53;71.44
30636;BME280;17400;52.392;9.750;2023-05-09T00:37:30;101356.56;;;13.53;71.28
30636;BME280;17400;52.392;9.750;2023-05-09T00:39:57;101358.81;;;13.42;71.59
30636;BME280;17400;52.392;9.750;2023-05-09T00:42:25;101357.31;;;13.40;71.59
30636;BME280;17400;52.392;9.750;2023-05-09T00:44:53;101349.75;;;13.35;71.86
30636;BME280;17400;52.392;9.750;2023-05-09T00:47:22;101350.53;;;13.29;71.82
30636;BME280;17400;52.392;9.750;2023-05-09T00:49:50;101350.78;;;13.34;71.50
30636;BME280;17400;52.392;9.750;2023-05-09T00:52:18;101347.81;;;13.29;71.42
30636;BME280;17400;52.392;9.750;2023-05-09T00:54:50;101348.03;;;13.27;71.37
30636;BME280;17400;52.392;9.750;2023-05-09T00:57:18;101347.28;;;13.12;71.93
30636;BME280;17400;52.392;9.750;2023-05-09T00:59:46;101349.44;;;13.16;72.21
30636;BME280;17400;52.392;9.750;2023-05-09T01:02:14;101350.63;;;13.07;72.50
30636;BME280;17400;52.392;9.750;2023-05-09T01:04:44;101339.78;;;13.14;72.33
30636;BME280;17400;52.392;9.750;2023-05-09T01:07:16;101333.84;;;13.04;72.93
30636;BME280;17400;52.392;9.750;2023-05-09T01:09:53;101327.59;;;13.03;72.56
30636;BME280;17400;52.392;9.750;2023-05-09T01:12:29;101321.81;;;12.85;74.11
30636;BME280;17400;52.392;9.750;2023-05-09T01:15:03;101323.47;;;12.86;74.08
30636;BME280;17400;52.392;9.750;2023-05-09T01:17:39;101312.81;;;12.84;74.56
30636;BME280;17400;52.392;9.750;2023-05-09T01:20:13;101313.25;;;12.88;73.89
30636;BME280;17400;52.392;9.750;2023-05-09T01:22:49;101311.31;;;12.81;74.48
30636;BME280;17400;52.392;9.750;2023-05-09T01:25:45;101304.09;;;12.67;75.63
30636;BME280;17400;52.392;9.750;2023-05-09T01:28:31;101294.25;;;12.66;75.54
30636;BME280;17400;52.392;9.750;2023-05-09T01:31:03;101293.22;;;12.67;75.64
30636;BME280;17400;52.392;9.750;2023-05-09T01:33:32;101300.41;;;12.75;74.84
30636;BME280;17400;52.392;9.750;2023-05-09T01:36:05;101297.88;;;12.73;75.39
30636;BME280;17400;52.392;9.750;2023-05-09T01:38:36;101288.84;;;12.66;75.27
30636;BME280;17400;52.392;9.750;2023-05-09T01:41:05;101287.75;;;12.60;76.12
30636;BME280;17400;52.392;9.750;2023-05-09T01:43:37;101284.88;;;12.40;77.41
30636;BME280;17400;52.392;9.750;2023-05-09T01:46:07;101291.69;;;12.58;76.65
30636;BME280;17400;52.392;9.750;2023-05-09T01:48:36;101287.06;;;12.52;77.00
30636;BME280;17400;52.392;9.750;2023-05-09T01:51:04;101287.91;;;12.52;76.72
30636;BME280;17400;52.392;9.750;2023-05-09T01:53:34;101285.50;;;12.64;76.28
30636;BME280;17400;52.392;9.750;2023-05-09T01:56:03;101285.91;;;12.61;76.53
30636;BME280;17400;52.392;9.750;2023-05-09T01:58:32;101284.78;;;12.55;76.77
30636;BME280;17400;52.392;9.750;2023-05-09T02:01:01;101280.78;;;12.51;77.14
30636;BME280;17400;52.392;9.750;2023-05-09T02:03:31;101280.00;;;12.57;77.24
30636;BME280;17400;52.392;9.750;2023-05-09T02:06:00;101280.84;;;12.58;76.46
30636;BME280;17400;52.392;9.750;2023-05-09T02:08:29;101284.56;;;12.57;77.47
30636;BME280;17400;52.392;9.750;2023-05-09T02:10:57;101279.66;;;12.67;76.81
30636;BME280;17400;52.392;9.750;2023-05-09T02:13:25;101275.34;;;12.51;77.59
30636;BME280;17400;52.392;9.750;2023-05-09T02:15:54;101272.06;;;12.56;77.73
30636;BME280;17400;52.392;9.750;2023-05-09T02:18:21;101273.91;;;12.55;77.63
30636;BME280;17400;52.392;9.750;2023-05-09T02:20:50;101272.88;;;12.56;77.60
30636;BME280;17400;52.392;9.750;2023-05-09T02:23:18;101271.50;;;12.39;78.91
30636;BME280;17400;52.392;9.750;2023-05-09T02:25:47;101256.69;;;12.41;79.35
30636;BME280;17400;52.392;9.750;2023-05-09T02:28:17;101271.94;;;12.42;79.23
30636;BME280;17400;52.392;9.750;2023-05-09T02:30:46;101264.69;;;12.49;78.60
30636;BME280;17400;52.392;9.750;2023-05-09T02:33:15;101274.78;;;12.56;78.48
30636;BME280;17400;52.392;9.750;2023-05-09T02:35:44;101271.16;;;12.48;78.73
30636;BME280;17400;52.392;9.750;2023-05-09T02:38:14;101268.84;;;12.45;79.27
30636;BME280;17400;52.392;9.750;2023-05-09T02:40:42;101274.31;;;12.52;78.68
30636;BME280;17400;52.392;9.750;2023-05-09T02:43:10;101276.38;;;12.50;78.38
30636;BME280;17400;52.392;9.750;2023-05-09T02:45:38;101270.31;;;12.48;78.85
30636;BME280;17400;52.392;9.750;2023-05-09T02:48:06;101271.09;;;12.42;79.55
30636;BME280;17400;52.392;9.750;2023-05-09T02:50:35;101265.47;;;12.43;79.49
30636;BME280;17400;52.392;9.750;2023-05-09T02:53:03;101266.84;;;12.32;80.41
30636;BME280;17400;52.392;9.750;2023-05-09T02:55:33;101264.72;;;12.28;80.77
30636;BME280;17400;52.392;9.750;2023-05-09T02:58:00;101264.56;;;12.36;80.47
30636;BME280;17400;52.392;9.750;2023-05-09T03:00:40;101258.38;;;12.42;80.35
30636;BME280;17400;52.392;9.750;2023-05-09T03:03:07;101259.41;;;12.41;80.19
30636;BME280;17400;52.392;9.750;2023-05-09T03:05:35;101249.44;;;12.48;79.95
30636;BME280;17400;52.392;9.750;2023-05-09T03:08:04;101253.91;;;12.35;80.89
30636;BME280;17400;52.392;9.750;2023-05-09T03:10:33;101265.50;;;12.22;82.22
30636;BME280;17400;52.392;9.750;2023-05-09T03:13:01;101260.31;;;12.27;81.95
30636;BME280;17400;52.392;9.750;2023-05-09T03:15:28;101253.88;;;12.28;81.84
30636;BME280;17400;52.392;9.750;2023-05-09T03:17:56;101248.94;;;12.16;82.74
30636;BME280;17400;52.392;9.750;2023-05-09T03:20:25;101245.34;;;12.09;83.53
30636;BME280;17400;52.392;9.750;2023-05-09T03:22:52;101247.78;;;12.04;84.34
30636;BME280;17400;52.392;9.750;2023-05-09T03:25:20;101245.97;;;12.11;83.87
30636;BME280;17400;52.392;9.750;2023-05-09T03:27:49;101239.91;;;12.09;84.02
30636;BME280;17400;52.392;9.750;2023-05-09T03:30:17;101246.03;;;11.96;84.98
30636;BME280;17400;52.392;9.750;2023-05-09T03:32:45;101240.03;;;12.01;84.73
30636;BME280;17400;52.392;9.750;2023-05-09T03:35:13;101245.56;;;11.93;85.71
30636;BME280;17400;52.392;9.750;2023-05-09T03:37:42;101233.16;;;11.83;86.81
30636;BME280;17400;52.392;9.750;2023-05-09T03:40:10;101234.56;;;11.79;87.40
30636;BME280;17400;52.392;9.750;2023-05-09T03:42:38;101238.91;;;11.74;88.45
30636;BME280;17400;52.392;9.750;2023-05-09T03:45:08;101241.59;;;11.74;88.23
30636;BME280;17400;52.392;9.750;2023-05-09T03:47:36;101241.59;;;11.74;88.50
30636;BME280;17400;52.392;9.750;2023-05-09T03:50:05;101233.53;;;11.80;88.29
30636;BME280;17400;52.392;9.750;2023-05-09T03:52:33;101230.81;;;11.80;88.44
30636;BME280;17400;52.392;9.750;2023-05-09T03:55:03;101227.09;;;11.81;88.18
30636;BME280;17400;52.392;9.750;2023-05-09T03:57:33;101232.13;;;11.84;88.09
30636;BME280;17400;52.392;9.750;2023-05-09T04:00:00;101219.72;;;11.75;88.63
30636;BME280;17400;52.392;9.750;2023-05-09T04:02:31;101215.31;;;11.74;89.20
30636;BME280;17400;52.392;9.750;2023-05-09T04:04:59;101224.88;;;11.70;89.55
30636;BME280;17400;52.392;9.750;2023-05-09T04:07:27;101217.63;;;11.77;89.33
30636;BME280;17400;52.392;9.750;2023-05-09T04:09:56;101216.41;;;11.80;89.15
30636;BME280;17400;52.392;9.750;2023-05-09T04:12:24;101215.84;;;11.63;90.54
30636;BME280;17400;52.392;9.750;2023-05-09T04:14:51;101214.34;;;11.60;91.28
30636;BME280;17400;52.392;9.750;2023-05-09T04:17:19;101203.38;;;11.69;90.28
30636;BME280;17400;52.392;9.750;2023-05-09T04:19:48;101212.53;;;11.67;90.71
30636;BME280;17400;52.392;9.750;2023-05-09T04:22:16;101210.00;;;11.66;90.23
30636;BME280;17400;52.392;9.750;2023-05-09T04:24:44;101213.81;;;11.72;90.85
30636;BME280;17400;52.392;9.750;2023-05-09T04:27:12;101215.78;;;11.78;90.35
30636;BME280;17400;52.392;9.750;2023-05-09T04:29:39;101212.16;;;11.92;89.49
30636;BME280;17400;52.392;9.750;2023-05-09T04:32:07;101212.47;;;11.82;90.62
30636;BME280;17400;52.392;9.750;2023-05-09T04:34:35;101209.91;;;11.96;89.87
30636;BME280;17400;52.392;9.750;2023-05-09T04:37:04;101211.31;;;11.92;89.58
30636;BME280;17400;52.392;9.750;2023-05-09T04:39:32;101215.81;;;11.99;89.27
30636;BME280;17400;52.392;9.750;2023-05-09T04:42:00;101211.03;;;12.02;89.67
30636;BME280;17400;52.392;9.750;2023-05-09T04:44:28;101208.59;;;11.92;90.16
30636;BME280;17400;52.392;9.750;2023-05-09T04:46:56;101206.88;;;11.84;91.30
30636;BME280;17400;52.392;9.750;2023-05-09T04:49:24;101204.34;;;11.82;90.98
30636;BME280;17400;52.392;9.750;2023-05-09T04:51:52;101206.97;;;11.76;91.90
30636;BME280;17400;52.392;9.750;2023-05-09T04:54:21;101212.41;;;11.76;91.94
30636;BME280;17400;52.392;9.750;2023-05-09T04:56:48;101200.91;;;11.74;92.83
30636;BME280;17400;52.392;9.750;2023-05-09T04:59:16;101200.31;;;11.78;92.23
30636;BME280;17400;52.392;9.750;2023-05-09T05:01:44;101195.59;;;11.65;93.70
30636;BME280;17400;52.392;9.750;2023-05-09T05:04:11;101188.19;;;11.74;93.30
30636;BME280;17400;52.392;9.750;2023-05-09T05:06:39;101190.44;;;11.71;93.92
30636;BME280;17400;52.392;9.750;2023-05-09T05:09:07;101186.13;;;11.76;94.02
30636;BME280;17400;52.392;9.750;2023-05-09T05:11:36;101190.34;;;11.79;93.96
30636;BME280;17400;52.392;9.750;2023-05-09T05:14:07;101186.56;;;11.80;94.59
30636;BME280;17400;52.392;9.750;2023-05-09T05:16:38;101187.16;;;11.75;94.71
30636;BME280;17400;52.392;9.750;2023-05-09T05:19:06;101187.03;;;11.83;94.47
30636;BME280;17400;52.392;9.750;2023-05-09T05:21:33;101190.66;;;11.91;94.09
30636;BME280;17400;52.392;9.750;2023-05-09T05:24:01;101185.50;;;11.96;93.93
30636;BME280;17400;52.392;9.750;2023-05-09T05:26:29;101186.97;;;11.98;94.60
30636;BME280;17400;52.392;9.750;2023-05-09T05:28:58;101185.19;;;12.06;93.93
30636;BME280;17400;52.392;9.750;2023-05-09T05:31:26;101185.38;;;12.04;93.33
30636;BME280;17400;52.392;9.750;2023-05-09T05:33:54;101180.59;;;12.06;93.50
30636;BME280;17400;52.392;9.750;2023-05-09T05:36:22;101184.19;;;11.92;94.32
30636;BME280;17400;52.392;9.750;2023-05-09T05:38:49;101180.06;;;11.96;94.16
30636;BME280;17400;52.392;9.750;2023-05-09T05:41:18;101180.31;;;12.01;94.56
30636;BME280;17400;52.392;9.750;2023-05-09T05:43:46;101180.00;;;12.11;93.24
30636;BME280;17400;52.392;9.750;2023-05-09T05:46:16;101175.34;;;12.05;93.43
30636;BME280;17400;52.392;9.750;2023-05-09T05:48:44;101169.88;;;11.98;95.25
30636;BME280;17400;52.392;9.750;2023-05-09T05:51:12;101169.53;;;12.08;94.02
30636;BME280;17400;52.392;9.750;2023-05-09T05:53:40;101173.59;;;12.19;93.91
30636;BME280;17400;52.392;9.750;2023-05-09T05:56:07;101169.47;;;12.23;93.57
30636;BME280;17400;52.392;9.750;2023-05-09T05:58:35;101159.03;;;12.26;94.70
30636;BME280;17400;52.392;9.750;2023-05-09T06:01:03;101164.66;;;12.25;94.16
30636;BME280;17400;52.392;9.750;2023-05-09T06:03:32;101163.25;;;12.36;93.47
30636;BME280;17400;52.392;9.750;2023-05-09T06:06:00;101155.41;;;12.47;92.90
30636;BME280;17400;52.392;9.750;2023-05-09T06:08:28;101147.91;;;12.49;93.77
30636;BME280;17400;52.392;9.750;2023-05-09T06:10:55;101145.41;;;12.48;93.86
30636;BME280;17400;52.392;9.750;2023-05-09T06:13:23;101140.88;;;12.62;93.68
30636;BME280;17400;52.392;9.750;2023-05-09T06:15:54;101147.59;;;12.66;92.98
30636;BME280;17400;52.392;9.750;2023-05-09T06:18:31;101145.75;;;12.73;92.23
30636;BME280;17400;52.392;9.750;2023-05-09T06:21:01;101142.25;;;12.79;91.71
30636;BME280;17400;52.392;9.750;2023-05-09T06:23:29;101140.84;;;12.97;92.00
30636;BME280;17400;52.392;9.750;2023-05-09T06:25:56;101142.16;;;13.08;90.80
30636;BME280;17400;52.392;9.750;2023-05-09T06:28:24;101146.13;;;13.12;90.63
30636;BME280;17400;52.392;9.750;2023-05-09T06:30:52;101137.63;;;13.28;90.35
30636;BME280;17400;52.392;9.750;2023-05-09T06:33:20;101131.13;;;13.29;90.21
30636;BME280;17400;52.392;9.750;2023-05-09T06:35:49;101131.63;;;13.46;89.95
30636;BME280;17400;52.392;9.750;2023-05-09T06:38:17;101129.34;;;13.57;88.26
30636;BME280;17400;52.392;9.750;2023-05-09T06:40:44;101137.72;;;13.62;88.72
30636;BME280;17400;52.392;9.750;2023-05-09T06:43:12;101130.22;;;13.77;87.21
30636;BME280;17400;52.392;9.750;2023-05-09T06:45:39;101124.34;;;13.87;85.19
30636;BME280;17400;52.392;9.750;2023-05-09T06:48:07;101121.00;;;13.85;85.34
30636;BME280;17400;52.392;9.750;2023-05-09T06:50:35;101120.59;;;13.88;84.75
30636;BME280;17400;52.392;9.750;2023-05-09T06:53:04;101108.84;;;13.94;84.73
30636;BME280;17400;52.392;9.750;2023-05-09T06:55:32;101103.81;;;13.98;85.22
30636;BME280;17400;52.392;9.750;2023-05-09T06:58:00;101099.44;;;14.10;84.96
30636;BME280;17400;52.392;9.750;2023-05-09T07:00:27;101093.34;;;14.22;83.78
30636;BME280;17400;52.392;9.750;2023-05-09T07:02:55;101091.25;;;14.24;84.10
30636;BME280;17400;52.392;9.750;2023-05-09T07:05:23;101086.00;;;14.29;85.22
30636;BME280;17400;52.392;9.750;2023-05-09T07:07:51;101085.53;;;14.45;83.46
30636;BME280;17400;52.392;9.750;2023-05-09T07:10:22;101083.44;;;14.47;83.20
30636;BME280;17400;52.392;9.750;2023-05-09T07:12:49;101077.53;;;14.57;82.43
30636;BME280;17400;52.392;9.750;2023-05-09T07:15:17;101062.44;;;14.68;81.81
30636;BME280;17400;52.392;9.750;2023-05-09T07:18:05;101059.91;;;14.73;81.27
30636;BME280;17400;52.392;9.750;2023-05-09T07:20:33;101054.84;;;14.83;81.08
30636;BME280;17400;52.392;9.750;2023-05-09T07:23:01;101061.69;;;14.93;80.71
30636;BME280;17400;52.392;9.750;2023-05-09T07:25:31;101056.00;;;15.01;79.80
30636;BME280;17400;52.392;9.750;2023-05-09T07:27:59;101057.63;;;15.09;79.81
30636;BME280;17400;52.392;9.750;2023-05-09T07:30:27;101052.75;;;15.18;80.14
30636;BME280;17400;52.392;9.750;2023-05-09T07:32:55;101048.09;;;15.25;79.18
30636;BME280;17400;52.392;9.750;2023-05-09T07:35:22;101049.53;;;15.27;78.43
30636;BME280;17400;52.392;9.750;2023-05-09T07:37:50;101048.25;;;15.30;77.98
30636;BME280;17400;52.392;9.750;2023-05-09T07:40:18;101044.84;;;15.35;78.03
30636;BME280;17400;52.392;9.750;2023-05-09T07:42:47;101048.78;;;15.45;77.29
30636;BME280;17400;52.392;9.750;2023-05-09T07:45:17;101040.56;;;15.52;75.25
30636;BME280;17400;52.392;9.750;2023-05-09T07:47:48;101041.94;;;15.61;75.88
30636;BME280;17400;52.392;9.750;2023-05-09T07:50:16;101027.78;;;15.71;75.41
30636;BME280;17400;52.392;9.750;2023-05-09T07:52:44;101036.59;;;15.73;76.33
30636;BME280;17400;52.392;9.750;2023-05-09T07:55:11;101033.63;;;15.81;75.88
30636;BME280;17400;52.392;9.750;2023-05-09T07:57:40;101026.19;;;15.89;75.12
30636;BME280;17400;52.392;9.750;2023-05-09T08:00:10;101021.66;;;16.01;74.85
30636;BME280;17400;52.392;9.750;2023-05-09T08:02:38;101014.69;;;16.05;74.48
30636;BME280;17400;52.392;9.750;2023-05-09T08:05:07;101021.59;;;16.08;73.78
30636;BME280;17400;52.392;9.750;2023-05-09T08:07:37;101012.28;;;16.15;74.23
30636;BME280;17400;52.392;9.750;2023-05-09T08:10:06;101007.31;;;16.24;74.05
30636;BME280;17400;52.392;9.750;2023-05-09T08:12:34;100990.34;;;16.41;74.04
30636;BME280;17400;52.392;9.750;2023-05-09T08:15:02;100996.16;;;16.44;71.76
30636;BME280;17400;52.392;9.750;2023-05-09T08:17:33;100994.03;;;16.46;71.65
30636;BME280;17400;52.392;9.750;2023-05-09T08:20:00;100992.91;;;16.54;71.95
30636;BME280;17400;52.392;9.750;2023-05-09T08:22:29;100989.84;;;16.62;70.38
30636;BME280;17400;52.392;9.750;2023-05-09T08:24:57;100984.28;;;16.69;70.74
30636;BME280;17400;52.392;9.750;2023-05-09T08:27:24;100980.78;;;16.80;70.74
30636;BME280;17400;52.392;9.750;2023-05-09T08:29:52;100973.00;;;16.96;69.95
30636;BME280;17400;52.392;9.750;2023-05-09T08:32:20;100967.44;;;17.03;68.64
30636;BME280;17400;52.392;9.750;2023-05-09T08:34:49;100964.78;;;16.96;69.29
30636;BME280;17400;52.392;9.750;2023-05-09T08:37:17;100959.44;;;17.01;68.14
30636;BME280;17400;52.392;9.750;2023-05-09T08:39:44;100952.13;;;17.13;69.59
30636;BME280;17400;52.392;9.750;2023-05-09T08:42:12;100954.88;;;17.25;69.43
30636;BME280;17400;52.392;9.750;2023-05-09T08:44:41;100949.53;;;17.30;69.18
30636;BME280;17400;52.392;9.750;2023-05-09T08:47:10;100946.56;;;17.44;68.83
30636;BME280;17400;52.392;9.750;2023-05-09T08:49:39;100944.53;;;17.51;69.38
30636;BME280;17400;52.392;9.750;2023-05-09T08:52:08;100948.22;;;17.57;68.56
30636;BME280;17400;52.392;9.750;2023-05-09T08:54:37;100944.91;;;17.55;69.17
30636;BME280;17400;52.392;9.750;2023-05-09T08:57:05;100952.50;;;17.64;69.46
30636;BME280;17400;52.392;9.750;2023-05-09T08:59:33;100936.81;;;17.72;69.32
30636;BME280;17400;52.392;9.750;2023-05-09T09:02:04;100931.56;;;17.82;69.64
30636;BME280;17400;52.392;9.750;2023-05-09T09:04:32;100934.28;;;17.94;68.42
30636;BME280;17400;52.392;9.750;2023-05-09T09:07:02;100930.47;;;17.95;67.43
30636;BME280;17400;52.392;9.750;2023-05-09T09:09:34;100930.94;;;18.04;67.81
30636;BME280;17400;52.392;9.750;2023-05-09T09:12:05;100916.50;;;18.08;66.43
30636;BME280;17400;52.392;9.750;2023-05-09T09:14:37;100911.63;;;18.10;67.53
30636;BME280;17400;52.392;9.750;2023-05-09T09:17:07;100910.16;;;18.20;66.69
30636;BME280;17400;52.392;9.750;2023-05-09T09:19:36;100905.38;;;18.27;65.09
30636;BME280;17400;52.392;9.750;2023-05-09T09:22:07;100912.06;;;18.31;65.24
30636;BME280;17400;52.392;9.750;2023-05-09T09:24:36;100912.53;;;18.28;62.61
30636;BME280;17400;52.392;9.750;2023-05-09T09:27:04;100907.16;;;18.33;63.55
30636;BME280;17400;52.392;9.750;2023-05-09T09:29:32;100906.19;;;18.39;63.88
30636;BME280;17400;52.392;9.750;2023-05-09T09:32:02;100909.13;;;18.50;62.95
30636;BME280;17400;52.392;9.750;2023-05-09T09:34:30;100899.78;;;18.51;59.71
30636;BME280;17400;52.392;9.750;2023-05-09T09:36:58;100895.72;;;18.53;59.36
30636;BME280;17400;52.392;9.750;2023-05-09T09:39:26;100887.03;;;18.56;60.37
30636;BME280;17400;52.392;9.750;2023-05-09T09:41:55;100882.47;;;18.62;59.27
30636;BME280;17400;52.392;9.750;2023-05-09T09:44:23;100882.56;;;18.67;60.73
30636;BME280;17400;52.392;9.750;2023-05-09T09:46:52;100884.22;;;18.68;57.93
30636;BME280;17400;52.392;9.750;2023-05-09T09:49:21;100871.94;;;18.71;57.67
30636;BME280;17400;52.392;9.750;2023-05-09T09:51:50;100868.34;;;18.70;57.74
30636;BME280;17400;52.392;9.750;2023-05-09T09:54:18;100868.94;;;18.72;57.22
30636;BME280;17400;52.392;9.750;2023-05-09T09:56:48;100871.25;;;18.80;57.37
30636;BME280;17400;52.392;9.750;2023-05-09T09:59:23;100862.53;;;18.84;56.95
30636;BME280;17400;52.392;9.750;2023-05-09T10:01:53;100855.97;;;18.85;57.26
30636;BME280;17400;52.392;9.750;2023-05-09T10:04:22;100868.28;;;18.82;56.48
30636;BME280;17400;52.392;9.750;2023-05-09T10:06:51;100852.16;;;18.86;56.76
30636;BME280;17400;52.392;9.750;2023-05-09T10:09:21;100844.19;;;18.84;56.67
30636;BME280;17400;52.392;9.750;2023-05-09T10:11:51;100842.81;;;18.98;56.06
30636;BME280;17400;52.392;9.750;2023-05-09T10:14:22;100837.63;;;19.02;56.02
30636;BME280;17400;52.392;9.750;2023-05-09T10:16:52;100822.91;;;19.08;56.54
30636;BME280;17400;52.392;9.750;2023-05-09T10:19:22;100812.09;;;19.19;56.03
30636;BME280;17400;52.392;9.750;2023-05-09T10:21:54;100814.91;;;19.24;55.91
30636;BME280;17400;52.392;9.750;2023-05-09T10:24:26;100812.72;;;19.26;56.17
30636;BME280;17400;52.392;9.750;2023-05-09T10:27:00;100795.69;;;19.24;56.31
30636;BME280;17400;52.392;9.750;2023-05-09T10:29:34;100809.50;;;19.29;55.29
30636;BME280;17400;52.392;9.750;2023-05-09T10:32:10;100802.00;;;19.24;56.50
30636;BME280;17400;52.392;9.750;2023-05-09T10:34:43;100804.72;;;19.41;55.42
30636;BME280;17400;52.392;9.750;2023-05-09T10:37:14;100806.22;;;19.32;54.83
30636;BME280;17400;52.392;9.750;2023-05-09T10:39:42;100790.09;;;19.36;54.43
30636;BME280;17400;52.392;9.750;2023-05-09T10:42:11;100798.16;;;19.42;54.96
30636;BME280;17400;52.392;9.750;2023-05-09T10:44:41;100783.97;;;19.51;54.56
30636;BME280;17400;52.392;9.750;2023-05-09T10:47:09;100779.88;;;19.53;54.88
30636;BME280;17400;52.392;9.750;2023-05-09T10:49:39;100782.56;;;19.48;54.31
30636;BME280;17400;52.392;9.750;2023-05-09T10:52:07;100775.78;;;19.56;55.49
30636;BME280;17400;52.392;9.750;2023-05-09T10:54:35;100766.03;;;19.65;55.08
30636;BME280;17400;52.392;9.750;2023-05-09T10:57:04;100761.16;;;19.72;54.44
30636;BME280;17400;52.392;9.750;2023-05-09T10:59:37;100758.47;;;19.77;54.46
30636;BME280;17400;52.392;9.750;2023-05-09T11:02:10;100749.72;;;19.80;54.27
30636;BME280;17400;52.392;9.750;2023-05-09T11:04:39;100746.13;;;19.80;53.50
30636;BME280;17400;52.392;9.750;2023-05-09T11:07:21;100746.22;;;19.85;53.36
30636;BME280;17400;52.392;9.750;2023-05-09T11:09:50;100738.84;;;19.91;54.02
30636;BME280;17400;52.392;9.750;2023-05-09T11:12:19;100740.84;;;19.95;53.02
30636;BME280;17400;52.392;9.750;2023-05-09T11:14:48;100737.34;;;20.05;52.02
30636;BME280;17400;52.392;9.750;2023-05-09T11:17:28;100729.16;;;20.10;52.29
30636;BME280;17400;52.392;9.750;2023-05-09T11:20:03;100723.19;;;20.19;52.50
30636;BME280;17400;52.392;9.750;2023-05-09T11:22:38;100725.50;;;20.32;51.74
30636;BME280;17400;52.392;9.750;2023-05-09T11:25:08;100712.63;;;20.38;52.85
30636;BME280;17400;52.392;9.750;2023-05-09T11:27:38;100709.63;;;20.39;52.55
30636;BME280;17400;52.392;9.750;2023-05-09T11:30:09;100709.88;;;20.38;52.52
30636;BME280;17400;52.392;9.750;2023-05-09T11:32:44;100706.56;;;20.36;52.73
30636;BME280;17400;52.392;9.750;2023-05-09T11:35:13;100704.13;;;20.39;52.02
30636;BME280;17400;52.392;9.750;2023-05-09T11:37:47;100710.69;;;20.38;52.27
30636;BME280;17400;52.392;9.750;2023-05-09T11:40:16;100702.44;;;20.38;52.08
30636;BME280;17400;52.392;9.750;2023-05-09T11:42:45;100698.97;;;20.53;52.43
30636;BME280;17400;52.392;9.750;2023-05-09T11:45:14;100691.63;;;20.59;52.06
30636;BME280;17400;52.392;9.750;2023-05-09T11:47:44;100693.13;;;20.77;51.82
30636;BME280;17400;52.392;9.750;2023-05-09T11:50:13;100687.66;;;20.82;51.10
30636;BME280;17400;52.392;9.750;2023-05-09T11:52:41;100681.34;;;20.87;50.91
30636;BME280;17400;52.392;9.750;2023-05-09T11:55:11;100678.09;;;20.95;51.35
30636;BME280;17400;52.392;9.750;2023-05-09T11:57:41;100677.28;;;20.94;50.71
30636;BME280;17400;52.392;9.750;2023-05-09T12:00:10;100669.88;;;21.00;51.19
30636;BME280;17400;52.392;9.750;2023-05-09T12:02:38;100669.91;;;21.10;50.74
30636;BME280;17400;52.392;9.750;2023-05-09T12:05:10;100668.84;;;21.22;50.56
30636;BME280;17400;52.392;9.750;2023-05-09T12:07:39;100664.50;;;21.36;50.37
30636;BME280;17400;52.392;9.750;2023-05-09T12:10:09;100659.31;;;21.50;49.98
30636;BME280;17400;52.392;9.750;2023-05-09T12:12:41;100656.06;;;21.63;49.97
30636;BME280;17400;52.392;9.750;2023-05-09T12:15:10;100661.50;;;21.48;50.27
30636;BME280;17400;52.392;9.750;2023-05-09T12:17:39;100657.84;;;21.27;50.49
30636;BME280;17400;52.392;9.750;2023-05-09T12:20:09;100650.66;;;21.16;50.89
30636;BME280;17400;52.392;9.750;2023-05-09T12:22:37;100650.69;;;21.31;51.71
30636;BME280;17400;52.392;9.750;2023-05-09T12:25:06;100648.78;;;21.42;50.39
30636;BME280;17400;52.392;9.750;2023-05-09T12:27:38;100649.34;;;21.34;50.62
30636;BME280;17400;52.392;9.750;2023-05-09T12:30:07;100648.28;;;21.45;50.96
30636;BME280;17400;52.392;9.750;2023-05-09T12:32:37;100640.31;;;21.49;51.19
30636;BME280;17400;52.392;9.750;2023-05-09T12:35:08;100642.75;;;21.45;51.00
30636;BME280;17400;52.392;9.750;2023-05-09T12:37:37;100635.03;;;21.37;50.29
30636;BME280;17400;52.392;9.750;2023-05-09T12:40:08;100631.16;;;21.33;50.28
30636;BME280;17400;52.392;9.750;2023-05-09T12:42:38;100633.09;;;21.37;51.40
30636;BME280;17400;52.392;9.750;2023-05-09T12:45:07;100623.28;;;21.57;50.67
30636;BME280;17400;52.392;9.750;2023-05-09T12:47:36;100619.72;;;21.87;50.02
30636;BME280;17400;52.392;9.750;2023-05-09T12:50:06;100616.13;;;22.12;49.12
30636;BME280;17400;52.392;9.750;2023-05-09T12:52:36;100620.25;;;22.15;48.56
30636;BME280;17400;52.392;9.750;2023-05-09T12:55:19;100619.41;;;22.20;47.96
30636;BME280;17400;52.392;9.750;2023-05-09T12:57:57;100610.03;;;22.05;47.59
30636;BME280;17400;52.392;9.750;2023-05-09T13:00:25;100603.72;;;22.15;47.77